Fengjie, China
Current Conditions -  °F | °C
As of 7:00 PM on Monday 20 Oct 2014 (Local Time) from ZUCK Reporting Station
Haze Haze  
Wind Chill: 68°   Ceiling: Unl
Heat Index: 68°   Visibility: 2.8mi
Dew Point: 61°   Wind: 2mph
Humidity: 78%   Direction: NA
Pressure: 30"   Gusts: NA
Location:  31.05°N, 109.5°E
Report Text: ZUCK 201100Z VRB01MPS 4500 BR FEW050 20/16 Q1016 NOSIG
Loading
Personal Weather Stations






























Interactive Weather Map
Tropical Storm Tracking
New forecast layout! Learn more

10-Day Weather Forecast

Advertisements
Track Severe Weather on mobile